Weather History For Prescott AZ
This page updates 5 minutes after midnight. GMT -7
Station: KPRC0 Rows: 26
| Year | Date | Temp (°F) | Tmin (°F) | Tmax (°F) | RH% | Prcp | Snow | Wind | Gust | Pres | Sun | Cloud |
|---|---|---|---|---|---|---|---|---|---|---|---|---|
| 2000 | 2000-04-18 | 48.9 | 39.0 | 55.9 | 48 | — | — | 21.6 | — | 29.89 | — | 3 |
| 2001 | 2001-04-18 | 63.5 | 45.0 | 77.0 | 23 | — | — | 16.5 | — | 29.94 | — | 1 |
| 2002 | 2002-04-18 | 54.5 | 44.6 | 64.4 | 32 | — | — | 19.6 | — | 29.84 | — | 0 |
| 2003 | 2003-04-18 | 44.4 | 35.6 | 53.6 | 53 | — | — | 13.2 | — | 29.80 | — | 3 |
| 2004 | 2004-04-18 | 48.9 | 39.2 | 62.6 | 45 | — | — | 12.1 | — | 29.99 | — | 1 |
| 2005 | 2005-04-18 | 57.6 | 44.1 | 69.1 | 28 | 0.0 | — | 19.2 | — | 29.76 | — | 0 |
| 2006 | 2006-04-18 | 50.7 | 37.0 | 64.9 | 20 | 0.0 | — | 11.0 | — | 29.95 | — | 0 |
| 2007 | 2007-04-18 | 53.8 | 35.1 | 66.0 | 25 | 0.0 | — | 27.8 | — | 29.76 | — | 0 |
| 2008 | 2008-04-18 | 54.1 | 32.0 | 73.9 | 21 | 0.0 | — | 8.1 | — | 29.98 | — | 0 |
| 2009 | 2009-04-18 | 53.8 | 36.0 | 70.0 | 40 | 0.0 | — | 8.6 | — | 30.02 | — | 0 |
| 2010 | 2010-04-18 | 60.6 | 45.0 | 75.0 | 25 | 0.0 | — | 11.0 | — | 29.86 | — | 0 |
| 2011 | 2011-04-18 | 63.0 | 53.1 | 72.0 | 30 | 0.0 | — | 17.2 | — | 29.70 | — | 1 |
| 2012 | 2012-04-18 | 61.7 | 43.0 | 75.9 | 28 | 0.0 | — | 13.1 | — | 29.91 | — | 0 |
| 2013 | 2013-04-18 | 43.5 | 27.0 | 59.0 | 22 | 0.0 | — | 10.5 | — | 30.09 | — | 0 |
| 2014 | 2014-04-18 | 55.8 | 48.9 | 66.0 | 42 | — | — | 14.2 | — | 29.87 | — | — |
| 2015 | 2015-04-18 | 56.8 | 37.9 | 73.0 | 26 | 0.0 | — | 13.3 | — | 29.90 | — | 1 |
| 2016 | 2016-04-18 | 51.6 | 33.1 | 66.0 | 33 | 0.0 | — | 10.8 | — | 30.06 | — | 0 |
| 2017 | 2017-04-18 | 61.0 | 44.1 | 75.0 | 34 | 0.0 | — | 16.0 | — | 29.93 | — | 0 |
| 2018 | 2018-04-18 | 51.1 | — | — | 18 | — | — | 11.2 | — | 29.98 | — | 0 |
| 2019 | 2019-04-18 | 59.9 | 43.0 | 77.0 | 32 | 0.0 | — | 8.5 | — | 30.07 | — | 0 |
| 2020 | 2020-04-18 | 50.0 | 36.0 | 59.0 | 51 | — | — | 12.2 | — | 29.86 | — | — |
| 2021 | 2021-04-18 | 49.6 | 33.1 | 63.0 | 34 | 0.0 | — | 11.4 | — | 29.96 | — | 2 |
| 2022 | 2022-04-18 | 62.1 | 39.9 | 78.1 | 17 | 0.0 | — | 14.5 | — | 29.91 | — | 0 |
| 2023 | 2023-04-18 | 58.5 | 52.0 | 66.9 | 22 | 0.0 | — | 18.2 | — | 29.72 | — | 0 |
| 2024 | 2024-04-18 | 61.5 | 46.0 | 75.0 | 26 | 0.0 | — | 12.5 | — | 29.89 | — | 0 |
| 2025 | 2025-04-18 | 41.4 | 32.0 | 50.0 | 76 | 17.5 | — | 13.2 | — | 29.80 | — | 3 |